sensor_id;sensor_type;location;lat;lon;timestamp;P1;durP1;ratioP1;P2;durP2;ratioP2
31686;SDS011;18285;51.330;4.946;2023-07-31T00:00:20;5.97;;;3.70;;
31686;SDS011;18285;51.330;4.946;2023-07-31T00:24:31;8.60;;;3.57;;
31686;SDS011;18285;51.330;4.946;2023-07-31T00:48:41;8.27;;;3.50;;
31686;SDS011;18285;51.330;4.946;2023-07-31T01:12:53;7.17;;;3.60;;
31686;SDS011;18285;51.330;4.946;2023-07-31T01:37:06;4.63;;;3.30;;
31686;SDS011;18285;51.330;4.946;2023-07-31T02:01:17;6.07;;;3.40;;
31686;SDS011;18285;51.330;4.946;2023-07-31T02:25:27;6.33;;;3.63;;
31686;SDS011;18285;51.330;4.946;2023-07-31T02:49:38;5.45;;;3.25;;
31686;SDS011;18285;51.330;4.946;2023-07-31T03:13:49;4.28;;;3.33;;
31686;SDS011;18285;51.330;4.946;2023-07-31T03:37:59;4.70;;;3.10;;
31686;SDS011;18285;51.330;4.946;2023-07-31T04:02:10;4.72;;;2.90;;
31686;SDS011;18285;51.330;4.946;2023-07-31T04:26:21;4.67;;;3.10;;
31686;SDS011;18285;51.330;4.946;2023-07-31T04:50:32;4.60;;;2.70;;
31686;SDS011;18285;51.330;4.946;2023-07-31T05:14:42;3.60;;;2.40;;
31686;SDS011;18285;51.330;4.946;2023-07-31T05:38:53;3.22;;;2.60;;
31686;SDS011;18285;51.330;4.946;2023-07-31T06:03:04;2.50;;;2.30;;
31686;SDS011;18285;51.330;4.946;2023-07-31T06:27:14;3.37;;;2.10;;
31686;SDS011;18285;51.330;4.946;2023-07-31T06:51:25;2.40;;;2.00;;
31686;SDS011;18285;51.330;4.946;2023-07-31T07:15:36;2.70;;;1.90;;
31686;SDS011;18285;51.330;4.946;2023-07-31T07:39:47;2.10;;;1.90;;
31686;SDS011;18285;51.330;4.946;2023-07-31T08:03:57;2.40;;;1.80;;
31686;SDS011;18285;51.330;4.946;2023-07-31T08:28:08;2.40;;;1.87;;
31686;SDS011;18285;51.330;4.946;2023-07-31T08:52:19;3.20;;;2.00;;
31686;SDS011;18285;51.330;4.946;2023-07-31T09:16:30;4.30;;;2.43;;
31686;SDS011;18285;51.330;4.946;2023-07-31T09:40:43;4.00;;;2.40;;
31686;SDS011;18285;51.330;4.946;2023-07-31T10:04:57;4.60;;;2.40;;
31686;SDS011;18285;51.330;4.946;2023-07-31T10:29:10;5.95;;;2.80;;
31686;SDS011;18285;51.330;4.946;2023-07-31T11:17:40;4.68;;;2.55;;
31686;SDS011;18285;51.330;4.946;2023-07-31T11:41:51;2.67;;;2.10;;
31686;SDS011;18285;51.330;4.946;2023-07-31T12:06:02;2.97;;;2.03;;
31686;SDS011;18285;51.330;4.946;2023-07-31T12:30:29;3.47;;;2.25;;
31686;SDS011;18285;51.330;4.946;2023-07-31T12:54:42;3.20;;;2.30;;
31686;SDS011;18285;51.330;4.946;2023-07-31T13:18:52;2.80;;;2.07;;
31686;SDS011;18285;51.330;4.946;2023-07-31T13:43:03;3.83;;;2.60;;
31686;SDS011;18285;51.330;4.946;2023-07-31T14:07:14;7.63;;;3.50;;
31686;SDS011;18285;51.330;4.946;2023-07-31T14:31:25;7.07;;;3.43;;
31686;SDS011;18285;51.330;4.946;2023-07-31T14:55:35;5.70;;;3.40;;
31686;SDS011;18285;51.330;4.946;2023-07-31T15:19:46;5.77;;;2.70;;
31686;SDS011;18285;51.330;4.946;2023-07-31T15:43:57;3.83;;;2.30;;
31686;SDS011;18285;51.330;4.946;2023-07-31T16:08:08;2.97;;;2.10;;
31686;SDS011;18285;51.330;4.946;2023-07-31T16:32:18;3.43;;;1.97;;
31686;SDS011;18285;51.330;4.946;2023-07-31T16:56:29;6.73;;;4.20;;
31686;SDS011;18285;51.330;4.946;2023-07-31T17:20:40;5.40;;;4.00;;
31686;SDS011;18285;51.330;4.946;2023-07-31T17:44:51;7.87;;;3.37;;
31686;SDS011;18285;51.330;4.946;2023-07-31T18:09:02;5.30;;;1.80;;
31686;SDS011;18285;51.330;4.946;2023-07-31T18:33:13;2.40;;;1.30;;
31686;SDS011;18285;51.330;4.946;2023-07-31T18:57:24;2.67;;;1.20;;
31686;SDS011;18285;51.330;4.946;2023-07-31T19:21:34;2.63;;;1.50;;
31686;SDS011;18285;51.330;4.946;2023-07-31T19:45:45;5.80;;;1.87;;
31686;SDS011;18285;51.330;4.946;2023-07-31T20:09:56;2.63;;;1.70;;
31686;SDS011;18285;51.330;4.946;2023-07-31T20:34:08;3.45;;;2.00;;
31686;SDS011;18285;51.330;4.946;2023-07-31T20:58:21;2.63;;;2.13;;
31686;SDS011;18285;51.330;4.946;2023-07-31T21:22:32;3.10;;;2.37;;
31686;SDS011;18285;51.330;4.946;2023-07-31T21:46:42;3.07;;;2.30;;
31686;SDS011;18285;51.330;4.946;2023-07-31T22:10:53;4.00;;;2.30;;
31686;SDS011;18285;51.330;4.946;2023-07-31T22:35:04;1.97;;;1.77;;
31686;SDS011;18285;51.330;4.946;2023-07-31T22:59:15;2.03;;;1.70;;
31686;SDS011;18285;51.330;4.946;2023-07-31T23:23:25;2.40;;;1.87;;
31686;SDS011;18285;51.330;4.946;2023-07-31T23:47:36;1.95;;;1.50;;
